createdAt,value
2023-02-14T00:00:25.745Z,51.40
2023-02-14T00:01:25.739Z,51.88
2023-02-14T00:02:25.749Z,52.21
2023-02-14T00:03:25.711Z,51.40
2023-02-14T00:04:25.826Z,52.37
2023-02-14T00:05:25.698Z,50.92
2023-02-14T00:06:25.690Z,51.56
2023-02-14T00:07:25.689Z,51.24
2023-02-14T00:08:25.673Z,50.92
2023-02-14T00:09:25.662Z,53.50
2023-02-14T00:10:25.651Z,51.72
2023-02-14T00:11:25.677Z,51.72
2023-02-14T00:12:25.637Z,51.56
2023-02-14T00:13:25.616Z,52.05
2023-02-14T00:14:25.608Z,52.69
2023-02-14T00:15:25.661Z,52.05
2023-02-14T00:16:25.655Z,52.37
2023-02-14T00:17:25.592Z,52.69
2023-02-14T00:18:25.587Z,52.21
2023-02-14T00:19:25.580Z,52.05
2023-02-14T00:20:25.566Z,51.72
2023-02-14T00:21:25.603Z,51.40
2023-02-14T00:22:25.569Z,51.40
2023-02-14T00:23:25.528Z,51.40
2023-02-14T00:24:25.530Z,51.40
2023-02-14T00:25:25.523Z,52.05
2023-02-14T00:26:25.506Z,53.66
2023-02-14T00:27:25.512Z,52.37
2023-02-14T00:28:25.488Z,52.69
2023-02-14T00:29:25.478Z,53.33
2023-02-14T00:30:25.570Z,51.24
2023-02-14T00:31:25.534Z,51.24
2023-02-14T00:32:25.477Z,51.56
2023-02-14T00:33:25.444Z,51.08
2023-02-14T00:34:25.447Z,51.08
2023-02-14T00:35:25.436Z,51.72
2023-02-14T00:36:25.429Z,51.88
2023-02-14T00:37:25.439Z,51.56
2023-02-14T00:38:25.401Z,51.08
2023-02-14T00:39:25.400Z,52.37
2023-02-14T00:40:25.388Z,53.50
2023-02-14T00:41:25.376Z,51.40
2023-02-14T00:42:25.382Z,52.69
2023-02-14T00:43:25.364Z,51.24
2023-02-14T00:44:25.355Z,51.56
2023-02-14T00:45:25.359Z,52.53
2023-02-14T00:46:25.330Z,52.21
2023-02-14T00:47:25.338Z,52.53
2023-02-14T00:48:25.309Z,52.05
2023-02-14T00:49:25.301Z,51.88
2023-02-14T00:50:25.296Z,51.24
2023-02-14T00:51:25.288Z,51.72
2023-02-14T00:52:25.293Z,51.24
2023-02-14T00:53:25.267Z,51.24
2023-02-14T00:54:25.314Z,51.72
2023-02-14T00:55:25.260Z,52.37
2023-02-14T00:56:25.242Z,52.37
2023-02-14T00:57:25.257Z,51.72
2023-02-14T00:58:25.222Z,51.56
2023-02-14T00:59:25.224Z,52.21
2023-02-14T01:00:25.216Z,52.05
2023-02-14T01:01:25.332Z,52.69
2023-02-14T01:02:25.254Z,51.56
2023-02-14T01:03:25.196Z,51.56
2023-02-14T01:04:25.174Z,52.21
2023-02-14T01:05:25.169Z,51.72
2023-02-14T01:06:25.151Z,51.56
2023-02-14T01:07:25.155Z,51.72
2023-02-14T01:08:25.142Z,53.01
2023-02-14T01:09:25.132Z,51.56
2023-02-14T01:10:25.138Z,51.40
2023-02-14T01:11:25.123Z,51.24
2023-02-14T01:12:25.115Z,51.40
2023-02-14T01:13:25.096Z,51.24
2023-02-14T01:14:25.088Z,52.37
2023-02-14T01:15:25.092Z,51.40
2023-02-14T01:16:25.129Z,51.56
2023-02-14T01:17:25.071Z,52.37
2023-02-14T01:18:25.053Z,51.72
2023-02-14T01:19:25.040Z,51.56
2023-02-14T01:20:25.037Z,51.24
2023-02-14T01:21:25.024Z,53.50
2023-02-14T01:22:25.028Z,52.05
2023-02-14T01:23:25.009Z,51.40
2023-02-14T01:24:25.000Z,51.56
2023-02-14T01:25:24.992Z,52.53
2023-02-14T01:26:25.036Z,50.92
2023-02-14T01:27:25.036Z,51.72
2023-02-14T01:28:24.972Z,51.24
2023-02-14T01:29:24.965Z,51.24
2023-02-14T01:30:24.981Z,51.08
2023-02-14T01:31:25.086Z,53.17
2023-02-14T01:32:24.941Z,52.05
2023-02-14T01:33:24.924Z,52.05
2023-02-14T01:34:24.950Z,51.08
2023-02-14T01:35:24.924Z,51.88
2023-02-14T01:36:24.939Z,51.88
2023-02-14T01:37:24.901Z,54.46
2023-02-14T01:38:24.880Z,52.37
2023-02-14T01:39:24.905Z,50.76
2023-02-14T01:40:24.876Z,51.56
2023-02-14T01:41:24.866Z,52.21
2023-02-14T01:42:24.856Z,52.37
2023-02-14T01:43:24.852Z,51.24
2023-02-14T01:44:24.826Z,52.21
2023-02-14T01:45:24.827Z,52.05
2023-02-14T01:46:24.839Z,52.05
2023-02-14T01:47:24.807Z,51.24
2023-02-14T01:48:24.804Z,51.56
2023-02-14T01:49:24.784Z,53.17
2023-02-14T01:50:24.764Z,52.21
2023-02-14T01:51:25.774Z,51.24
2023-02-14T01:52:24.758Z,52.21
2023-02-14T01:53:24.761Z,54.79
2023-02-14T01:54:24.741Z,54.30
2023-02-14T01:55:24.734Z,53.82
2023-02-14T01:56:24.723Z,52.85
2023-02-14T01:57:24.725Z,51.40
2023-02-14T01:58:24.720Z,52.37
2023-02-14T01:59:24.694Z,51.72
2023-02-14T02:00:24.687Z,53.17
2023-02-14T02:01:24.731Z,53.50
2023-02-14T02:02:24.700Z,52.21
2023-02-14T02:03:24.678Z,52.21
2023-02-14T02:04:24.649Z,52.53
2023-02-14T02:05:24.644Z,52.05
2023-02-14T02:06:24.635Z,53.50
2023-02-14T02:07:24.622Z,53.33
2023-02-14T02:08:24.630Z,51.72
2023-02-14T02:09:24.614Z,53.33
2023-02-14T02:10:24.599Z,54.30
2023-02-14T02:11:24.592Z,52.37
2023-02-14T02:12:24.590Z,52.05
2023-02-14T02:13:24.586Z,52.05
2023-02-14T02:14:24.568Z,53.17
2023-02-14T02:15:24.554Z,52.05
2023-02-14T02:16:24.586Z,54.95
2023-02-14T02:17:24.539Z,53.50
2023-02-14T02:18:24.545Z,51.56
2023-02-14T02:19:24.523Z,53.01
2023-02-14T02:20:24.516Z,52.69
2023-02-14T02:21:24.521Z,53.01
2023-02-14T02:22:24.498Z,52.05
2023-02-14T02:23:24.502Z,51.56
2023-02-14T02:24:24.483Z,51.40
2023-02-14T02:25:24.488Z,53.33
2023-02-14T02:26:24.464Z,52.05
2023-02-14T02:27:25.994Z,53.17
2023-02-14T02:28:25.460Z,52.85
2023-02-14T02:29:24.439Z,52.53
2023-02-14T02:30:24.666Z,51.72
2023-02-14T02:31:24.485Z,51.56
2023-02-14T02:32:24.416Z,53.50
2023-02-14T02:33:24.415Z,51.24
2023-02-14T02:34:24.395Z,51.08
2023-02-14T02:35:24.388Z,53.66
2023-02-14T02:36:24.381Z,53.98
2023-02-14T02:37:24.387Z,52.85
2023-02-14T02:38:24.373Z,51.56
2023-02-14T02:39:24.352Z,52.53
2023-02-14T02:40:24.342Z,54.14
2023-02-14T02:41:24.335Z,52.85
2023-02-14T02:42:24.325Z,54.14
2023-02-14T02:43:24.316Z,53.33
2023-02-14T02:44:25.356Z,52.53
2023-02-14T02:45:24.323Z,52.37
2023-02-14T02:46:24.391Z,52.37
2023-02-14T02:47:24.283Z,53.82
2023-02-14T02:48:24.285Z,53.17
2023-02-14T02:49:24.267Z,54.95
2023-02-14T02:50:24.259Z,53.50
2023-02-14T02:51:24.253Z,52.85
2023-02-14T02:52:24.238Z,53.33
2023-02-14T02:53:24.242Z,53.17
2023-02-14T02:54:24.219Z,52.37
2023-02-14T02:55:24.215Z,53.50
2023-02-14T02:56:24.200Z,54.95
2023-02-14T02:57:24.203Z,53.98
2023-02-14T02:58:24.201Z,54.14
2023-02-14T02:59:24.181Z,52.53
2023-02-14T03:00:24.165Z,53.98
2023-02-14T03:01:24.265Z,52.37
2023-02-14T03:02:24.142Z,52.53
2023-02-14T03:03:25.161Z,54.30
2023-02-14T03:04:24.153Z,53.50
2023-02-14T03:05:24.130Z,52.53
2023-02-14T03:06:24.130Z,53.50
2023-02-14T03:07:24.110Z,53.66
2023-02-14T03:08:24.111Z,52.69
2023-02-14T03:09:24.090Z,53.17
2023-02-14T03:10:24.088Z,52.05
2023-02-14T03:11:24.071Z,54.14
2023-02-14T03:12:24.064Z,52.53
2023-02-14T03:13:24.064Z,52.05
2023-02-14T03:14:24.047Z,54.14
2023-02-14T03:15:24.057Z,53.01
2023-02-14T03:16:24.043Z,53.50
2023-02-14T03:17:24.017Z,52.69
2023-02-14T03:18:24.020Z,53.66
2023-02-14T03:19:23.998Z,53.50
2023-02-14T03:20:23.996Z,53.98
2023-02-14T03:21:23.982Z,53.50
2023-02-14T03:22:23.975Z,52.53
2023-02-14T03:23:23.976Z,53.66
2023-02-14T03:24:23.965Z,52.85
2023-02-14T03:25:23.947Z,54.62
2023-02-14T03:26:23.947Z,52.85
2023-02-14T03:27:23.932Z,54.30
2023-02-14T03:28:23.932Z,53.33
2023-02-14T03:29:23.914Z,53.66
2023-02-14T03:30:24.011Z,53.98
2023-02-14T03:31:24.018Z,52.05
2023-02-14T03:32:23.944Z,53.66
2023-02-14T03:33:23.887Z,52.37
2023-02-14T03:34:23.869Z,53.33
2023-02-14T03:35:23.865Z,54.62
2023-02-14T03:36:23.849Z,55.11
2023-02-14T03:37:23.855Z,54.14
2023-02-14T03:38:23.849Z,54.62
2023-02-14T03:39:23.833Z,53.66
2023-02-14T03:40:23.828Z,53.98
2023-02-14T03:41:23.823Z,54.30
2023-02-14T03:42:24.801Z,54.30
2023-02-14T03:43:23.800Z,53.17
2023-02-14T03:44:23.788Z,55.75
2023-02-14T03:45:23.819Z,53.66
2023-02-14T03:46:23.774Z,53.82
2023-02-14T03:47:23.765Z,56.40
2023-02-14T03:48:23.762Z,54.95
2023-02-14T03:49:23.749Z,54.62
2023-02-14T03:50:23.731Z,53.66
2023-02-14T03:51:23.740Z,53.50
2023-02-14T03:52:23.719Z,54.79
2023-02-14T03:53:23.724Z,54.62
2023-02-14T03:54:23.697Z,54.79
2023-02-14T03:55:23.687Z,53.82
2023-02-14T03:56:23.683Z,54.30
2023-02-14T03:57:23.671Z,53.82
2023-02-14T03:58:23.706Z,55.11
2023-02-14T03:59:23.700Z,54.62
2023-02-14T04:00:23.646Z,54.30
2023-02-14T04:01:23.675Z,54.62
2023-02-14T04:02:23.639Z,53.33
2023-02-14T04:03:23.687Z,53.17
2023-02-14T04:04:23.616Z,53.82
2023-02-14T04:05:23.621Z,53.82
2023-02-14T04:06:23.597Z,55.43
2023-02-14T04:07:23.586Z,52.69
2023-02-14T04:08:23.591Z,55.43
2023-02-14T04:09:23.569Z,53.66
2023-02-14T04:10:23.568Z,56.07
2023-02-14T04:11:24.651Z,55.43
2023-02-14T04:12:37.065Z,54.62
2023-02-14T04:13:25.549Z,54.62
2023-02-14T04:14:23.531Z,56.07
2023-02-14T04:15:23.520Z,55.75
2023-02-14T04:16:23.556Z,56.24
2023-02-14T04:17:23.506Z,57.04
2023-02-14T04:18:23.504Z,54.79
2023-02-14T04:19:23.501Z,55.75
2023-02-14T04:20:23.480Z,55.59
2023-02-14T04:21:23.469Z,53.01
2023-02-14T04:22:23.459Z,53.82
2023-02-14T04:23:23.491Z,53.17
2023-02-14T04:24:23.449Z,55.91
2023-02-14T04:25:23.431Z,53.33
2023-02-14T04:26:23.424Z,57.52
2023-02-14T04:27:23.416Z,55.27
2023-02-14T04:28:23.418Z,55.75
2023-02-14T04:29:23.398Z,55.91
2023-02-14T04:30:23.423Z,54.30
2023-02-14T04:31:23.462Z,55.91
2023-02-14T04:32:23.513Z,55.91
2023-02-14T04:33:23.360Z,54.95
2023-02-14T04:34:23.363Z,56.07
2023-02-14T04:35:23.348Z,53.33
2023-02-14T04:36:23.344Z,56.40
2023-02-14T04:37:23.396Z,55.59
2023-02-14T04:38:23.325Z,54.46
2023-02-14T04:39:23.322Z,55.91
2023-02-14T04:40:23.304Z,54.95
2023-02-14T04:41:23.296Z,55.59
2023-02-14T04:42:23.288Z,55.43
2023-02-14T04:43:23.280Z,54.62
2023-02-14T04:44:23.282Z,55.75
2023-02-14T04:45:23.262Z,56.07
2023-02-14T04:46:23.289Z,54.14
2023-02-14T04:47:23.239Z,54.14
2023-02-14T04:48:23.236Z,55.59
2023-02-14T04:49:23.236Z,55.43
2023-02-14T04:50:23.227Z,55.11
2023-02-14T04:51:23.210Z,55.43
2023-02-14T04:52:23.202Z,53.33
2023-02-14T04:53:23.202Z,53.98
2023-02-14T04:54:23.196Z,55.75
2023-02-14T04:55:23.179Z,55.11
2023-02-14T04:56:23.167Z,56.07
2023-02-14T04:57:23.157Z,56.07
2023-02-14T04:58:23.149Z,56.24
2023-02-14T04:59:24.870Z,54.95
2023-02-14T05:00:24.187Z,54.14
2023-02-14T05:01:23.129Z,56.40
2023-02-14T05:02:23.145Z,57.04
2023-02-14T05:03:23.113Z,55.91
2023-02-14T05:04:23.116Z,54.14
2023-02-14T05:05:23.088Z,54.79
2023-02-14T05:06:23.083Z,56.24
2023-02-14T05:07:23.066Z,56.24
2023-02-14T05:08:24.064Z,56.24
2023-02-14T05:09:23.066Z,56.56
2023-02-14T05:10:23.048Z,56.07
2023-02-14T05:11:23.038Z,55.43
2023-02-14T05:12:23.035Z,56.24
2023-02-14T05:13:23.024Z,56.24
2023-02-14T05:14:23.028Z,55.59
2023-02-14T05:15:23.003Z,54.30
2023-02-14T05:16:23.110Z,54.62
2023-02-14T05:17:22.987Z,56.07
2023-02-14T05:18:22.979Z,54.46
2023-02-14T05:19:22.981Z,57.20
2023-02-14T05:20:22.963Z,56.56
2023-02-14T05:21:22.957Z,54.95
2023-02-14T05:22:22.945Z,55.75
2023-02-14T05:23:22.938Z,56.24
2023-02-14T05:24:22.945Z,55.43
2023-02-14T05:25:22.915Z,55.11
2023-02-14T05:26:22.906Z,54.95
2023-02-14T05:27:22.887Z,57.20
2023-02-14T05:28:23.892Z,56.07
2023-02-14T05:29:23.029Z,54.62
2023-02-14T05:30:22.980Z,55.11
2023-02-14T05:31:22.981Z,54.62
2023-02-14T05:32:22.869Z,56.24
2023-02-14T05:33:22.845Z,55.75
2023-02-14T05:34:22.848Z,57.20
2023-02-14T05:35:22.827Z,57.85
2023-02-14T05:36:22.815Z,57.20
2023-02-14T05:37:22.809Z,56.88
2023-02-14T05:38:22.799Z,55.75
2023-02-14T05:39:22.808Z,56.72
2023-02-14T05:42:09.945Z,56.07
2023-02-14T05:43:09.917Z,56.24
2023-02-14T05:44:09.923Z,57.52
2023-02-14T05:45:09.903Z,57.04
2023-02-14T05:46:09.953Z,57.20
2023-02-14T05:47:12.141Z,55.59
2023-02-14T05:48:09.887Z,58.01
2023-02-14T05:49:09.879Z,56.88
2023-02-14T05:50:09.856Z,55.75
2023-02-14T05:51:09.854Z,55.11
2023-02-14T05:52:09.835Z,56.07
2023-02-14T05:53:09.835Z,55.59
2023-02-14T05:54:11.066Z,56.07
2023-02-14T05:55:09.812Z,57.69
2023-02-14T05:56:09.809Z,56.40
2023-02-14T05:57:09.795Z,56.72
2023-02-14T05:58:09.788Z,55.75
2023-02-14T05:59:09.785Z,55.59
2023-02-14T06:00:09.768Z,55.11
2023-02-14T06:01:09.777Z,57.20
2023-02-14T06:02:09.772Z,53.17
2023-02-14T06:03:09.737Z,53.66
2023-02-14T06:04:09.778Z,56.88
2023-02-14T06:05:09.725Z,56.88
2023-02-14T06:06:09.712Z,54.95
2023-02-14T06:07:09.718Z,54.79
2023-02-14T06:08:09.725Z,55.59
2023-02-14T06:09:09.698Z,56.24
2023-02-14T06:10:09.680Z,56.40
2023-02-14T06:11:09.670Z,55.11
2023-02-14T06:12:09.682Z,54.95
2023-02-14T06:13:09.654Z,55.11
2023-02-14T06:14:09.681Z,56.88
2023-02-14T06:15:09.634Z,55.75
2023-02-14T06:16:09.627Z,55.43
2023-02-14T06:17:09.621Z,54.95
2023-02-14T06:18:09.615Z,57.04
2023-02-14T06:19:09.610Z,56.24
2023-02-14T06:20:09.598Z,55.91
2023-02-14T06:21:09.584Z,54.14
2023-02-14T06:22:09.576Z,57.04
2023-02-14T06:23:09.569Z,56.72
2023-02-14T06:24:09.568Z,56.40
2023-02-14T06:25:09.564Z,55.75
2023-02-14T06:26:09.540Z,55.59
2023-02-14T06:27:09.535Z,55.43
2023-02-14T06:28:09.521Z,56.56
2023-02-14T06:29:09.526Z,54.79
2023-02-14T06:30:09.553Z,55.91
2023-02-14T06:31:09.587Z,56.24
2023-02-14T06:32:09.783Z,57.69
2023-02-14T06:33:10.610Z,56.24
2023-02-14T06:34:10.634Z,58.01
2023-02-14T06:35:10.571Z,57.20
2023-02-14T06:36:10.560Z,54.79
2023-02-14T06:37:10.552Z,57.20
2023-02-14T06:38:10.552Z,55.27
2023-02-14T06:39:10.557Z,54.95
2023-02-14T06:40:10.548Z,57.52
2023-02-14T06:41:10.521Z,56.07
2023-02-14T06:42:10.508Z,55.11
2023-02-14T06:43:10.506Z,56.72
2023-02-14T06:44:10.582Z,55.75
2023-02-14T06:45:10.492Z,55.11
2023-02-14T06:46:10.550Z,55.59
2023-02-14T06:47:10.479Z,56.24
2023-02-14T06:48:10.468Z,57.36
2023-02-14T06:49:10.468Z,55.91
2023-02-14T06:50:10.447Z,56.07
2023-02-14T06:51:10.436Z,55.59
2023-02-14T06:52:10.524Z,56.07
2023-02-14T06:53:10.423Z,55.59
2023-02-14T06:54:10.424Z,55.11
2023-02-14T06:55:10.423Z,57.36
2023-02-14T06:56:10.393Z,54.95
2023-02-14T06:57:10.391Z,54.95
2023-02-14T06:58:10.377Z,55.43
2023-02-14T06:59:10.368Z,56.88
2023-02-14T07:00:10.385Z,57.04
2023-02-14T07:01:10.397Z,55.59
2023-02-14T07:02:10.362Z,55.91
2023-02-14T07:03:10.356Z,55.75
2023-02-14T07:04:10.337Z,53.17
2023-02-14T07:05:10.322Z,55.27
2023-02-14T07:06:10.302Z,56.40
2023-02-14T07:07:10.301Z,54.14
2023-02-14T07:08:10.284Z,53.33
2023-02-14T07:09:10.274Z,54.46
2023-02-14T07:10:10.432Z,56.24
2023-02-14T07:11:10.269Z,56.56
2023-02-14T07:12:10.277Z,55.75
2023-02-14T07:13:10.243Z,56.40
2023-02-14T07:14:10.236Z,55.11
2023-02-14T07:15:10.237Z,54.14
2023-02-14T07:16:10.256Z,55.27
2023-02-14T07:17:10.222Z,55.75
2023-02-14T07:18:10.198Z,57.04
2023-02-14T07:19:10.193Z,58.17
2023-02-14T07:20:10.192Z,57.20
2023-02-14T07:21:10.166Z,54.95
2023-02-14T07:22:11.168Z,56.40
2023-02-14T07:23:10.163Z,54.95
2023-02-14T07:24:10.153Z,54.62
2023-02-14T07:25:10.156Z,54.62
2023-02-14T07:26:10.137Z,55.59
2023-02-14T07:27:10.130Z,53.82
2023-02-14T07:28:10.120Z,55.91
2023-02-14T07:29:10.107Z,57.52
2023-02-14T07:30:10.168Z,54.95
2023-02-14T07:31:10.125Z,55.43
2023-02-14T07:32:10.188Z,54.95
2023-02-14T07:33:10.067Z,56.07
2023-02-14T07:34:10.067Z,55.27
2023-02-14T07:35:10.072Z,56.07
2023-02-14T07:36:10.061Z,56.56
2023-02-14T07:37:10.042Z,55.11
2023-02-14T07:38:10.040Z,56.24
2023-02-14T07:39:10.020Z,57.52
2023-02-14T07:40:14.709Z,56.24
2023-02-14T07:41:12.006Z,56.07
2023-02-14T07:42:09.999Z,56.07
2023-02-14T07:43:10.020Z,55.27
2023-02-14T07:44:09.991Z,55.43
2023-02-14T07:45:21.341Z,55.11
2023-02-14T07:46:12.002Z,54.46
2023-02-14T07:47:09.950Z,56.07
2023-02-14T07:48:09.952Z,56.40
2023-02-14T07:49:09.934Z,53.98
2023-02-14T07:50:09.936Z,55.91
2023-02-14T07:51:09.916Z,55.43
2023-02-14T07:52:09.930Z,55.11
2023-02-14T07:53:09.918Z,56.88
2023-02-14T07:54:09.881Z,56.07
2023-02-14T07:55:10.923Z,56.24
2023-02-14T07:56:09.872Z,55.91
2023-02-14T07:57:09.863Z,55.75
2023-02-14T07:58:09.853Z,54.30
2023-02-14T07:59:09.841Z,56.40
2023-02-14T08:00:09.848Z,57.20
2023-02-14T08:01:09.840Z,53.98
2023-02-14T08:02:09.816Z,55.91
2023-02-14T08:03:09.814Z,56.88
2023-02-14T08:04:09.808Z,55.91
2023-02-14T08:05:09.862Z,55.91
2023-02-14T08:06:09.782Z,57.20
2023-02-14T08:07:09.773Z,57.04
2023-02-14T08:08:09.771Z,57.36
2023-02-14T08:09:09.758Z,57.69
2023-02-14T08:10:11.441Z,56.88
2023-02-14T08:11:09.743Z,57.20
2023-02-14T08:12:09.734Z,56.24
2023-02-14T08:13:09.717Z,57.04
2023-02-14T08:14:09.716Z,57.36
2023-02-14T08:15:09.710Z,55.59
2023-02-14T08:16:09.877Z,57.20
2023-02-14T08:17:10.882Z,55.43
2023-02-14T08:18:09.673Z,56.56
2023-02-14T08:19:09.662Z,54.79
2023-02-14T08:20:09.672Z,56.24
2023-02-14T08:21:09.644Z,54.46
2023-02-14T08:22:09.639Z,53.98
2023-02-14T08:23:09.628Z,54.30
2023-02-14T08:24:09.622Z,53.17
2023-02-14T08:25:09.622Z,53.66
2023-02-14T08:26:09.600Z,55.43
2023-02-14T08:27:09.604Z,56.40
2023-02-14T08:28:09.580Z,54.95
2023-02-14T08:29:09.588Z,55.11
2023-02-14T08:30:09.634Z,55.11
2023-02-14T08:31:09.599Z,55.27
2023-02-14T08:32:09.663Z,55.27
2023-02-14T08:33:09.537Z,55.43
2023-02-14T08:34:09.542Z,54.30
2023-02-14T08:35:09.550Z,55.11
2023-02-14T08:36:09.509Z,55.43
2023-02-14T08:37:09.506Z,55.43
2023-02-14T08:38:09.493Z,55.43
2023-02-14T08:39:09.483Z,54.46
2023-02-14T08:40:09.513Z,56.40
2023-02-14T08:41:09.762Z,54.62
2023-02-14T08:42:09.459Z,54.30
2023-02-14T08:43:09.443Z,54.30
2023-02-14T08:44:09.437Z,54.62
2023-02-14T08:45:09.442Z,55.75
2023-02-14T08:46:09.502Z,53.98
2023-02-14T08:47:09.519Z,54.14
2023-02-14T08:48:09.414Z,54.14
2023-02-14T08:49:09.442Z,55.43
2023-02-14T08:50:09.435Z,55.59
2023-02-14T08:51:09.388Z,53.17
2023-02-14T08:52:09.424Z,53.66
2023-02-14T08:53:09.431Z,53.82
2023-02-14T08:54:09.364Z,53.98
2023-02-14T08:55:09.373Z,55.11
2023-02-14T08:56:09.365Z,54.30
2023-02-14T08:57:09.332Z,53.98
2023-02-14T08:58:09.333Z,52.53
2023-02-14T08:59:09.321Z,55.27
2023-02-14T09:00:09.324Z,52.53
2023-02-14T09:01:09.455Z,53.17
2023-02-14T09:02:09.299Z,54.14
2023-02-14T09:03:09.300Z,54.95
2023-02-14T09:04:09.456Z,54.14
2023-02-14T09:05:09.318Z,53.33
2023-02-14T09:06:09.258Z,54.46
2023-02-14T09:07:09.266Z,55.11
2023-02-14T09:08:09.261Z,52.69
2023-02-14T09:09:09.230Z,54.79
2023-02-14T09:10:09.235Z,54.30
2023-02-14T09:11:09.208Z,53.17
2023-02-14T09:12:09.200Z,54.46
2023-02-14T09:13:09.197Z,55.11
2023-02-14T09:14:09.186Z,54.79
2023-02-14T09:15:09.226Z,54.30
2023-02-14T09:16:09.357Z,54.95
2023-02-14T09:17:09.166Z,53.82
2023-02-14T09:18:09.145Z,53.98
2023-02-14T09:19:09.142Z,53.33
2023-02-14T09:20:09.142Z,53.17
2023-02-14T09:21:09.164Z,53.50
2023-02-14T09:22:09.172Z,54.62
2023-02-14T09:23:09.126Z,52.69
2023-02-14T09:24:09.091Z,53.50
2023-02-14T09:25:09.099Z,53.33
2023-02-14T09:26:09.078Z,54.14
2023-02-14T09:27:09.074Z,54.79
2023-02-14T09:28:09.065Z,53.98
2023-02-14T09:29:09.061Z,54.14
2023-02-14T09:30:09.086Z,54.14
2023-02-14T09:31:09.113Z,54.30
2023-02-14T09:32:09.223Z,53.33
2023-02-14T09:33:09.020Z,52.85
2023-02-14T09:34:09.007Z,53.33
2023-02-14T09:35:09.003Z,53.66
2023-02-14T09:36:09.006Z,53.50
2023-02-14T09:37:08.983Z,52.85
2023-02-14T09:38:08.970Z,54.30
2023-02-14T09:39:08.967Z,54.95
2023-02-14T09:40:08.955Z,55.27
2023-02-14T09:41:08.965Z,54.62
2023-02-14T09:42:08.934Z,54.62
2023-02-14T09:43:08.929Z,52.37
2023-02-14T09:44:08.926Z,52.37
2023-02-14T09:45:08.933Z,53.33
2023-02-14T09:46:08.988Z,54.62
2023-02-14T09:47:08.898Z,53.98
2023-02-14T09:48:08.888Z,54.95
2023-02-14T09:49:08.950Z,53.98
2023-02-14T09:50:08.911Z,52.85
2023-02-14T09:51:08.872Z,54.30
2023-02-14T09:52:08.848Z,53.66
2023-02-14T09:53:08.855Z,52.85
2023-02-14T09:54:08.827Z,52.37
2023-02-14T09:55:08.839Z,53.33
2023-02-14T09:56:08.840Z,52.37
2023-02-14T09:57:08.798Z,53.98
2023-02-14T09:58:08.791Z,53.17
2023-02-14T09:59:08.787Z,52.37
2023-02-14T10:00:08.775Z,53.66
2023-02-14T10:01:08.902Z,52.05
2023-02-14T10:02:08.769Z,52.21
2023-02-14T10:03:08.743Z,53.33
2023-02-14T10:04:08.737Z,53.50
2023-02-14T10:05:08.736Z,53.17
2023-02-14T10:06:08.743Z,53.33
2023-02-14T10:07:08.705Z,53.17
2023-02-14T10:08:08.747Z,53.33
2023-02-14T10:09:08.686Z,52.69
2023-02-14T10:10:08.677Z,52.21
2023-02-14T10:11:08.694Z,52.05
2023-02-14T10:12:08.667Z,52.21
2023-02-14T10:13:08.651Z,53.50
2023-02-14T10:14:08.703Z,53.66
2023-02-14T10:15:08.653Z,53.66
2023-02-14T10:16:08.654Z,53.33
2023-02-14T10:17:08.613Z,54.62
2023-02-14T10:18:08.673Z,54.46
2023-02-14T10:19:08.594Z,54.30
2023-02-14T10:20:08.590Z,55.11
2023-02-14T10:21:08.576Z,54.46
2023-02-14T10:22:08.560Z,53.01
2023-02-14T10:23:08.583Z,53.66
2023-02-14T10:24:08.541Z,53.66
2023-02-14T10:25:08.543Z,54.46
2023-02-14T10:26:08.527Z,54.62
2023-02-14T10:27:10.589Z,53.98
2023-02-14T10:28:09.505Z,54.79
2023-02-14T10:29:08.491Z,55.27
2023-02-14T10:30:08.572Z,55.27
2023-02-14T10:31:08.494Z,54.30
2023-02-14T10:32:08.548Z,53.82
2023-02-14T10:33:08.446Z,53.33
2023-02-14T10:34:08.436Z,53.17
2023-02-14T10:35:08.476Z,55.43
2023-02-14T10:36:08.480Z,53.98
2023-02-14T10:37:08.435Z,54.95
2023-02-14T10:38:08.392Z,55.43
2023-02-14T10:39:08.383Z,54.62
2023-02-14T10:40:08.397Z,55.75
2023-02-14T10:41:08.377Z,54.46
2023-02-14T10:42:08.394Z,55.27
2023-02-14T10:43:08.344Z,54.95
2023-02-14T10:44:08.348Z,54.46
2023-02-14T10:45:08.333Z,53.82
2023-02-14T10:46:08.424Z,54.62
2023-02-14T10:47:08.305Z,54.46
2023-02-14T10:48:08.308Z,53.82
2023-02-14T10:49:08.286Z,53.17
2023-02-14T10:50:08.286Z,53.66
2023-02-14T10:51:08.279Z,53.66
2023-02-14T10:52:08.352Z,52.85
2023-02-14T10:53:08.254Z,53.33
2023-02-14T10:54:08.248Z,52.53
2023-02-14T10:55:08.275Z,52.85
2023-02-14T10:56:08.231Z,53.33
2023-02-14T10:57:08.215Z,53.33
2023-02-14T10:58:08.258Z,51.56
2023-02-14T10:59:08.195Z,53.17
2023-02-14T11:00:08.210Z,52.05
2023-02-14T11:01:08.251Z,53.17
2023-02-14T11:02:08.172Z,53.66
2023-02-14T11:03:08.202Z,52.85
2023-02-14T11:04:08.162Z,53.33
2023-02-14T11:05:08.148Z,54.30
2023-02-14T11:06:08.153Z,52.37
2023-02-14T11:07:08.126Z,52.85
2023-02-14T11:08:08.117Z,52.37
2023-02-14T11:09:08.172Z,53.50
2023-02-14T11:10:08.100Z,53.01
2023-02-14T11:11:08.105Z,53.33
2023-02-14T11:12:08.103Z,52.37
2023-02-14T11:13:08.074Z,53.66
2023-02-14T11:14:08.060Z,53.33
2023-02-14T11:15:08.060Z,53.66
2023-02-14T11:16:08.063Z,52.85
2023-02-14T11:17:08.037Z,53.01
2023-02-14T11:18:08.035Z,51.88
2023-02-14T11:19:08.014Z,52.69
2023-02-14T11:20:08.006Z,51.88
2023-02-14T11:21:08.044Z,52.53
2023-02-14T11:22:08.005Z,53.98
2023-02-14T11:23:07.987Z,52.85
2023-02-14T11:24:07.999Z,51.40
2023-02-14T11:25:07.967Z,54.14
2023-02-14T11:26:07.962Z,53.17
2023-02-14T11:27:07.944Z,52.69
2023-02-14T11:28:07.935Z,51.88
2023-02-14T11:29:07.963Z,52.37
2023-02-14T11:30:07.999Z,52.21
2023-02-14T11:31:08.073Z,53.17
2023-02-14T11:32:07.918Z,53.17
2023-02-14T11:33:07.904Z,53.66
2023-02-14T11:34:07.885Z,52.05
2023-02-14T11:35:07.877Z,52.69
2023-02-14T11:36:07.875Z,52.05
2023-02-14T11:37:07.840Z,51.56
2023-02-14T11:38:08.870Z,53.98
2023-02-14T11:39:07.836Z,53.50
2023-02-14T11:40:07.842Z,52.69
2023-02-14T11:41:07.848Z,52.21
2023-02-14T11:42:07.828Z,53.33
2023-02-14T11:43:14.001Z,52.85
2023-02-14T11:44:09.789Z,53.50
2023-02-14T11:45:07.776Z,52.21
2023-02-14T11:46:07.815Z,52.21
2023-02-14T11:47:08.577Z,52.85
2023-02-14T11:48:08.745Z,51.56
2023-02-14T11:49:08.737Z,51.56
2023-02-14T11:50:07.732Z,52.05
2023-02-14T11:51:07.726Z,53.01
2023-02-14T11:52:09.941Z,52.69
2023-02-14T11:53:07.701Z,53.33
2023-02-14T11:54:07.797Z,53.33
2023-02-14T11:55:07.779Z,54.62
2023-02-14T11:56:07.686Z,54.14
2023-02-14T11:57:07.692Z,53.33
2023-02-14T11:58:07.711Z,52.69
2023-02-14T11:59:07.666Z,52.69
2023-02-14T12:00:07.660Z,52.53
2023-02-14T12:01:07.648Z,53.82
2023-02-14T12:02:07.658Z,53.82
2023-02-14T12:03:07.616Z,52.05
2023-02-14T12:04:07.602Z,53.82
2023-02-14T12:05:07.599Z,52.69
2023-02-14T12:06:07.762Z,53.17
2023-02-14T12:07:07.573Z,53.50
2023-02-14T12:08:07.568Z,53.66
2023-02-14T12:09:07.556Z,53.33
2023-02-14T12:10:07.549Z,51.40
2023-02-14T12:11:07.551Z,52.85
2023-02-14T12:12:07.532Z,52.37
2023-02-14T12:13:07.588Z,53.82
2023-02-14T12:14:07.517Z,53.01
2023-02-14T12:15:07.493Z,53.17
2023-02-14T12:16:08.622Z,52.21
2023-02-14T12:17:08.485Z,52.85
2023-02-14T12:18:07.480Z,53.17
2023-02-14T12:19:07.550Z,53.01
2023-02-14T12:20:07.465Z,52.37
2023-02-14T12:21:07.468Z,52.37
2023-02-14T12:22:07.442Z,52.53
2023-02-14T12:23:07.432Z,52.37
2023-02-14T12:24:07.414Z,52.37
2023-02-14T12:25:07.407Z,52.21
2023-02-14T12:26:07.415Z,54.79
2023-02-14T12:27:07.388Z,53.82
2023-02-14T12:28:07.378Z,53.66
2023-02-14T12:29:07.373Z,53.33
2023-02-14T12:30:07.459Z,52.85
2023-02-14T12:31:07.533Z,53.17
2023-02-14T12:32:07.436Z,53.82
2023-02-14T12:33:07.325Z,53.50
2023-02-14T12:34:07.367Z,53.82
2023-02-14T12:35:07.324Z,52.21
2023-02-14T12:36:07.303Z,52.69
2023-02-14T12:37:07.343Z,53.66
2023-02-14T12:38:07.381Z,52.85
2023-02-14T12:39:07.279Z,52.69
2023-02-14T12:40:07.261Z,52.69
2023-02-14T12:41:07.254Z,53.01
2023-02-14T12:42:07.389Z,53.66
2023-02-14T12:43:07.301Z,53.17
2023-02-14T12:44:07.227Z,51.88
2023-02-14T12:45:07.325Z,53.66
2023-02-14T12:46:07.272Z,53.66
2023-02-14T12:47:07.207Z,52.21
2023-02-14T12:48:07.194Z,51.72
2023-02-14T12:49:07.184Z,52.69
2023-02-14T12:50:07.163Z,51.56
2023-02-14T12:51:08.167Z,52.85
2023-02-14T12:52:07.163Z,53.33
2023-02-14T12:53:07.143Z,54.62
2023-02-14T12:54:07.137Z,52.21